Time;durP1;ratioP1;P1;durP2;ratioP2;P2;SDS_P1;SDS_P2;PMS_P1;PMS_P2;Temp;Humidity;BMP_temperature;BMP_pressure;BME280_temperature;BME280_humidity;BME280_pressure;Samples;Min_cycle;Max_cycle;Signal;HPM_P1;HPM_P2
2022/05/12 08:02:03;;;;;;;8.82;4.82;;;;;23.30;101465.00;;;;10268667;23;20241;-77
2022/05/12 08:07:05;;;;;;;8.55;4.20;;;;;24.50;101469.00;;;;9940783;29;20203;-77
2022/05/12 08:12:08;;;;;;;12.43;4.18;;;;;24.20;101461.00;;;;9910416;29;20195;-77
2022/05/12 08:17:10;;;;;;;11.02;4.47;;;;;24.20;101474.00;;;;9927346;29;20297;-78
2022/05/12 08:22:12;;;;;;;10.10;4.32;;;;;24.40;101475.00;;;;9917220;29;20670;-78
2022/05/12 08:27:14;;;;;;;6.25;3.08;;;;;23.50;101490.00;;;;9930977;29;20195;-77
2022/05/12 08:32:16;;;;;;;10.13;3.58;;;;;21.80;101481.00;;;;9924210;29;20222;-79
2022/05/12 08:37:18;;;;;;;10.95;4.35;;;;;22.10;101485.00;;;;9906039;29;20724;-78
2022/05/12 08:42:26;;;;;;;25.55;5.70;;;;;22.90;101469.00;;;;9894199;29;20222;-79
2022/05/12 08:47:35;;;;;;;7.00;4.72;;;;;22.80;101486.00;;;;9932105;29;20199;-79
2022/05/12 08:52:46;;;;;;;7.32;5.15;;;;;24.00;101467.00;;;;9917963;29;20528;-79
2022/05/12 08:57:55;;;;;;;12.48;6.60;;;;;25.20;101472.00;;;;9930907;29;20218;-78
2022/05/12 09:03:21;;;;;;;7.00;4.50;;;;;26.20;101477.00;;;;9876872;29;20207;-80
2022/05/12 09:09:06;;;;;;;9.88;6.10;;;;;26.90;101485.00;;;;9880189;30;20211;-80
2022/05/12 09:14:36;;;;;;;9.70;5.60;;;;;25.70;101480.00;;;;9883005;29;20217;-80
2022/05/12 09:19:45;;;;;;;11.82;4.95;;;;;26.40;101489.00;;;;9878093;29;20314;-80
2022/05/12 09:24:47;;;;;;;7.85;5.18;;;;;26.50;101489.00;;;;9895187;29;20204;-80
2022/05/12 09:29:50;;;;;;;11.23;6.40;;;;;26.90;101479.00;;;;9882200;29;20212;-79
2022/05/12 09:35:20;;;;;;;8.93;4.40;;;;;27.70;101482.00;;;;9894149;29;20203;-79
2022/05/12 09:40:36;;;;;;;7.65;3.85;;;;;25.90;101490.00;;;;9866735;29;20288;-79
2022/05/12 09:45:38;;;;;;;8.23;3.47;;;;;26.00;101474.00;;;;9891625;30;20217;-79
2022/05/12 09:50:40;;;;;;;4.65;3.25;;;;;25.30;101484.00;;;;9910892;29;20228;-80
2022/05/12 09:55:57;;;;;;;5.25;3.35;;;;;25.60;101482.00;;;;9888566;29;20307;-78
2022/05/12 10:01:11;;;;;;;8.68;4.95;;;;;25.30;101472.00;;;;9897451;30;20336;-78
2022/05/12 10:12:14;;;;;;;6.18;4.10;;;;;25.50;101474.00;;;;9889779;29;20451;-79
2022/05/12 10:17:34;;;;;;;8.50;4.18;;;;;27.40;101465.00;;;;9889206;29;20224;-78
2022/05/12 10:22:44;;;;;;;7.07;4.07;;;;;28.20;101468.00;;;;9897128;29;20207;-79
2022/05/12 10:28:00;;;;;;;7.00;4.68;;;;;27.90;101473.00;;;;9910964;30;20200;-79
2022/05/12 10:33:19;;;;;;;7.95;3.70;;;;;28.70;101474.00;;;;9867393;30;20204;-79
2022/05/12 10:38:49;;;;;;;7.25;4.93;;;;;28.00;101476.00;;;;9867817;29;20636;-79
2022/05/12 10:44:14;;;;;;;7.90;5.80;;;;;28.90;101468.00;;;;9895004;30;20272;-78
2022/05/12 10:49:35;;;;;;;10.90;7.28;;;;;29.00;101480.00;;;;9878977;29;20198;-78
2022/05/12 10:55:05;;;;;;;10.10;7.60;;;;;28.20;101465.00;;;;9892822;29;20209;-79
2022/05/12 11:00:48;;;;;;;8.20;5.75;;;;;28.80;101451.00;;;;9926039;29;20762;-78
2022/05/12 11:05:57;;;;;;;8.27;4.90;;;;;28.90;101454.00;;;;9891749;30;20257;-78
2022/05/12 11:11:02;;;;;;;7.35;4.60;;;;;28.80;101440.00;;;;9870684;29;20200;-79
2022/05/12 11:16:10;;;;;;;9.75;3.83;;;;;28.10;101449.00;;;;9876220;30;20295;-79
2022/05/12 11:21:25;;;;;;;8.85;4.03;;;;;27.20;101445.00;;;;9911081;29;20721;-78
2022/05/12 11:26:57;;;;;;;9.18;4.40;;;;;27.30;101426.00;;;;9881525;30;20212;-78
2022/05/12 11:32:29;;;;;;;8.95;4.40;;;;;29.00;101437.00;;;;9896246;29;20264;-79
2022/05/12 11:37:53;;;;;;;9.10;4.03;;;;;29.10;101423.00;;;;9893101;30;20226;-78
2022/05/12 11:48:36;;;;;;;8.30;3.05;;;;;29.60;101418.00;;;;9947102;29;20222;-79
2022/05/12 11:53:58;;;;;;;7.00;2.80;;;;;30.30;101419.00;;;;9867318;29;20211;-78
2022/05/12 11:59:18;;;;;;;4.65;2.05;;;;;29.90;101429.00;;;;9884322;29;20806;-78
2022/05/12 12:04:39;;;;;;;5.53;2.50;;;;;29.30;101414.00;;;;9917274;29;20206;-78
2022/05/12 12:09:44;;;;;;;4.43;1.80;;;;;29.10;101413.00;;;;9908819;29;20222;-78
2022/05/12 12:14:45;;;;;;;4.45;2.10;;;;;29.40;101414.00;;;;9868301;30;20227;-78
2022/05/12 12:19:50;;;;;;;9.20;2.25;;;;;28.20;101409.00;;;;9897076;29;20227;-78
2022/05/12 12:25:04;;;;;;;4.93;2.10;;;;;28.20;101401.00;;;;9908429;29;20211;-78
2022/05/12 12:30:31;;;;;;;5.38;2.05;;;;;28.50;101404.00;;;;9877967;29;20203;-78
2022/05/12 12:36:08;;;;;;;7.63;2.38;;;;;28.00;101404.00;;;;9915300;29;20206;-79
2022/05/12 12:41:35;;;;;;;5.85;1.60;;;;;26.70;101395.00;;;;9873017;29;20258;-79
2022/05/12 12:47:04;;;;;;;6.28;2.15;;;;;27.40;101387.00;;;;9883978;29;20675;-78
2022/05/12 12:52:10;;;;;;;5.93;1.90;;;;;27.60;101394.00;;;;9911102;29;20199;-79
2022/05/12 12:57:18;;;;;;;5.88;2.03;;;;;27.20;101384.00;;;;9928967;29;20226;-79
2022/05/12 13:02:41;;;;;;;8.52;1.90;;;;;27.30;101379.00;;;;9930837;29;20239;-78
2022/05/12 13:07:43;;;;;;;6.38;2.03;;;;;27.30;101383.00;;;;9919498;29;20287;-79
2022/05/12 13:13:03;;;;;;;5.35;1.73;;;;;26.40;101377.00;;;;9861635;29;20264;-79
2022/05/12 13:18:15;;;;;;;5.65;1.63;;;;;27.70;101369.00;;;;9900581;29;20227;-79
2022/05/12 13:23:36;;;;;;;6.38;1.63;;;;;29.10;101370.00;;;;9891953;30;20272;-78
2022/05/12 13:28:38;;;;;;;5.72;1.95;;;;;29.50;101367.00;;;;9931794;29;20200;-79
2022/05/12 13:34:00;;;;;;;7.45;2.13;;;;;27.60;101378.00;;;;9884385;30;20208;-78
2022/05/12 13:39:03;;;;;;;4.32;1.88;;;;;27.40;101368.00;;;;9915302;29;20232;-80
2022/05/12 13:44:19;;;;;;;5.30;1.65;;;;;26.40;101371.00;;;;9891799;30;20264;-79
2022/05/12 13:49:33;;;;;;;4.57;1.83;;;;;26.20;101365.00;;;;9891068;29;20211;-78
2022/05/12 13:54:59;;;;;;;7.03;1.90;;;;;26.30;101370.00;;;;9884603;30;20780;-79
2022/05/12 14:00:10;;;;;;;4.68;1.60;;;;;26.60;101349.00;;;;9909425;29;20237;-79
2022/05/12 14:05:15;;;;;;;6.40;1.80;;;;;26.60;101347.00;;;;9887271;29;20200;-78
2022/05/12 14:10:28;;;;;;;5.50;1.65;;;;;26.90;101338.00;;;;9873259;30;20205;-78
2022/05/12 14:21:07;;;;;;;5.78;1.80;;;;;25.90;101346.00;;;;9902068;30;20246;-79
2022/05/12 14:26:09;;;;;;;5.97;1.45;;;;;25.50;101332.00;;;;9894750;29;20714;-80
2022/05/12 14:31:12;;;;;;;7.15;1.77;;;;;24.60;101339.00;;;;9906594;29;20208;-79
2022/05/12 14:36:14;;;;;;;5.88;1.60;;;;;24.60;101339.00;;;;9867527;29;20203;-79
2022/05/12 14:41:16;;;;;;;5.88;1.40;;;;;24.90;101335.00;;;;9867596;30;20680;-79
2022/05/12 14:46:21;;;;;;;7.90;1.92;;;;;25.90;101317.00;;;;9882652;29;20204;-79
2022/05/12 15:49:49;;;;;;;3.60;1.52;;;;;26.50;101304.00;;;;11689523;24;20260;-79
2022/05/12 15:54:55;;;;;;;3.95;1.30;;;;;24.90;101301.00;;;;9990702;29;21485;-79
2022/05/12 15:59:57;;;;;;;4.75;1.30;;;;;24.90;101293.00;;;;9990500;29;20254;-79
2022/05/12 16:04:59;;;;;;;6.70;1.88;;;;;24.50;101293.00;;;;10006364;29;21591;-78
2022/05/12 16:10:01;;;;;;;4.65;1.50;;;;;25.00;101281.00;;;;10044354;29;20200;-78
2022/05/12 16:15:18;;;;;;;7.47;1.35;;;;;25.40;101272.00;;;;10029106;29;20657;-79
2022/05/12 16:20:22;;;;;;;2.67;1.17;;;;;25.10;101279.00;;;;9984905;29;20231;-78
2022/05/12 16:25:24;;;;;;;5.00;1.83;;;;;23.80;101277.00;;;;9983294;29;20609;-79
2022/05/12 16:30:26;;;;;;;3.58;1.55;;;;;23.60;101280.00;;;;9983738;29;20234;-78
2022/05/12 16:35:29;;;;;;;3.97;1.30;;;;;23.80;101282.00;;;;9992814;29;20653;-78
2022/05/12 16:40:31;;;;;;;3.38;0.90;;;;;23.50;101267.00;;;;9991125;29;20213;-78
2022/05/12 16:45:34;;;;;;;2.10;1.20;;;;;23.00;101270.00;;;;10034377;29;20205;-78
2022/05/12 16:50:37;;;;;;;9.40;1.50;;;;;22.50;101261.00;;;;9989757;29;20206;-79
2022/05/12 16:55:39;;;;;;;6.28;1.40;;;;;22.20;101270.00;;;;10012662;29;20208;-78
2022/05/12 17:00:41;;;;;;;5.47;1.25;;;;;22.10;101263.00;;;;10012396;29;20289;-79
2022/05/12 17:05:43;;;;;;;7.03;1.23;;;;;22.10;101260.00;;;;10012892;29;20292;-78
2022/05/12 17:10:47;;;;;;;8.68;1.20;;;;;22.10;101257.00;;;;10027742;29;20230;-79
2022/05/12 17:15:49;;;;;;;5.97;1.55;;;;;21.70;101271.00;;;;10009215;29;20293;-78
2022/05/12 17:20:51;;;;;;;5.30;1.23;;;;;21.10;101274.00;;;;9965459;29;20571;-79
2022/05/12 17:25:53;;;;;;;3.15;1.27;;;;;20.60;101277.00;;;;10008713;29;20201;-78
2022/05/12 17:30:56;;;;;;;3.70;1.40;;;;;20.40;101277.00;;;;10015360;29;20197;-78
2022/05/12 17:36:05;;;;;;;3.20;1.30;;;;;20.50;101267.00;;;;9992081;29;20692;-78
2022/05/12 17:41:08;;;;;;;3.63;1.35;;;;;20.50;101282.00;;;;10029503;29;20708;-79
2022/05/12 17:46:12;;;;;;;2.60;1.25;;;;;20.40;101281.00;;;;10029174;29;20197;-79
2022/05/12 17:51:14;;;;;;;4.00;1.42;;;;;20.10;101292.00;;;;10014315;29;20216;-79
2022/05/12 17:56:16;;;;;;;4.63;1.23;;;;;20.00;101298.00;;;;10014996;29;20208;-79
2022/05/12 18:01:18;;;;;;;8.27;1.48;;;;;20.00;101298.00;;;;10014903;29;20232;-78
2022/05/12 18:06:22;;;;;;;5.03;1.20;;;;;19.90;101305.00;;;;10045126;29;20284;-78
2022/05/12 18:11:24;;;;;;;4.40;1.45;;;;;19.80;101307.00;;;;9992866;29;20235;-78
2022/05/12 18:16:27;;;;;;;8.30;1.38;;;;;19.60;101314.00;;;;10081588;24;20708;-80
2022/05/12 18:21:30;;;;;;;5.15;1.23;;;;;19.40;101300.00;;;;9982118;29;20332;-80
2022/05/12 18:26:32;;;;;;;8.85;1.48;;;;;19.20;101317.00;;;;9994270;29;20202;-80
2022/05/12 18:31:37;;;;;;;6.78;1.70;;;;;18.90;101310.00;;;;9994764;29;20684;-79
2022/05/12 18:36:39;;;;;;;5.55;1.35;;;;;18.70;101317.00;;;;10009933;29;20205;-80
2022/05/12 18:41:41;;;;;;;4.47;1.40;;;;;18.50;101325.00;;;;9993724;29;20230;-80
2022/05/12 18:46:58;;;;;;;2.85;1.00;;;;;18.30;101318.00;;;;9978790;29;20205;-80
2022/05/12 18:52:00;;;;;;;10.43;1.48;;;;;18.10;101316.00;;;;9978618;29;20477;-80
2022/05/12 18:57:02;;;;;;;7.35;1.20;;;;;17.90;101328.00;;;;10005583;29;20300;-80
2022/05/12 19:02:06;;;;;;;3.05;0.80;;;;;17.70;101328.00;;;;9989202;29;20696;-79
2022/05/12 19:07:08;;;;;;;2.00;1.02;;;;;17.50;101350.00;;;;9970496;29;20225;-80
2022/05/12 19:12:10;;;;;;;5.53;1.20;;;;;17.30;101351.00;;;;9939397;29;20211;-80
2022/05/12 19:17:12;;;;;;;3.37;1.00;;;;;17.10;101358.00;;;;9987368;29;20265;-80
2022/05/12 19:22:15;;;;;;;3.60;0.90;;;;;16.90;101363.00;;;;9995403;29;20321;-80
2022/05/12 19:27:17;;;;;;;5.67;1.53;;;;;16.70;101372.00;;;;9980258;29;20293;-80
2022/05/12 19:32:19;;;;;;;4.20;1.50;;;;;16.60;101381.00;;;;10008911;29;20242;-80
2022/05/12 19:37:21;;;;;;;5.17;1.30;;;;;16.40;101383.00;;;;10027366;29;20266;-80
2022/05/12 19:42:23;;;;;;;3.30;1.27;;;;;16.20;101387.00;;;;10011374;29;20257;-79
2022/05/12 19:47:27;;;;;;;5.70;1.00;;;;;16.10;101385.00;;;;10011676;29;20299;-79
2022/05/12 19:52:29;;;;;;;5.17;1.03;;;;;15.90;101387.00;;;;9997284;29;20613;-81
2022/05/12 19:57:31;;;;;;;5.00;1.50;;;;;15.80;101390.00;;;;10011384;29;20221;-79
2022/05/12 20:02:33;;;;;;;3.33;0.90;;;;;15.70;101402.00;;;;9946708;29;20245;-81
2022/05/12 20:07:35;;;;;;;4.73;1.10;;;;;15.60;101406.00;;;;9941434;29;20557;-80
2022/05/12 20:12:37;;;;;;;4.53;1.27;;;;;15.50;101400.00;;;;9972814;29;20274;-79
2022/05/12 20:17:43;;;;;;;6.13;1.00;;;;;15.40;101403.00;;;;9939140;29;20242;-79
2022/05/12 20:22:45;;;;;;;5.53;1.33;;;;;15.30;101411.00;;;;9949923;29;20214;-79
2022/05/12 20:27:47;;;;;;;5.50;1.10;;;;;15.20;101414.00;;;;9965929;29;20198;-79
2022/05/12 20:32:49;;;;;;;3.70;1.53;;;;;15.10;101419.00;;;;9992394;29;20288;-80
2022/05/12 20:37:52;;;;;;;5.00;1.37;;;;;15.10;101433.00;;;;10025156;29;20231;-79
2022/05/12 20:42:54;;;;;;;9.37;1.40;;;;;15.10;101430.00;;;;10041264;29;20204;-80
2022/05/12 20:47:56;;;;;;;3.43;1.00;;;;;15.00;101433.00;;;;9996710;29;20235;-80
2022/05/12 20:52:58;;;;;;;5.03;1.30;;;;;15.00;101441.00;;;;10011898;29;20205;-79
2022/05/12 20:58:00;;;;;;;2.83;0.90;;;;;14.80;101439.00;;;;9967065;29;20312;-81
2022/05/12 21:03:02;;;;;;;4.57;1.27;;;;;14.80;101449.00;;;;10004938;29;20809;-80
2022/05/12 21:08:05;;;;;;;4.53;1.40;;;;;14.70;101447.00;;;;9967825;29;20214;-81
2022/05/12 21:13:08;;;;;;;3.50;1.17;;;;;14.60;101457.00;;;;9996547;29;20206;-80
2022/05/12 21:18:11;;;;;;;7.53;1.40;;;;;14.40;101462.00;;;;10005916;29;20794;-81
2022/05/12 21:23:13;;;;;;;3.27;1.13;;;;;14.30;101464.00;;;;10011140;29;20577;-81
2022/05/12 21:28:15;;;;;;;2.27;0.90;;;;;14.30;101462.00;;;;9964883;29;20693;-81
2022/05/12 21:33:18;;;;;;;4.17;1.10;;;;;14.20;101470.00;;;;10003232;29;20627;-81
2022/05/12 21:38:20;;;;;;;4.50;1.20;;;;;14.10;101457.00;;;;10002900;29;20220;-81
2022/05/12 21:43:22;;;;;;;4.40;1.10;;;;;13.90;101461.00;;;;10033314;29;20205;-81
2022/05/12 21:48:32;;;;;;;4.67;1.03;;;;;13.80;101453.00;;;;10017359;29;20201;-81
2022/05/12 21:53:50;;;;;;;3.23;1.03;;;;;13.70;101459.00;;;;10032685;29;20211;-81
2022/05/12 22:04:18;;;;;;;2.93;0.80;;;;;13.60;101454.00;;;;9994548;29;20201;-80
2022/05/12 22:09:30;;;;;;;3.43;1.10;;;;;13.50;101454.00;;;;9964081;29;20221;-80
2022/05/12 22:14:36;;;;;;;4.17;1.17;;;;;13.40;101456.00;;;;9975739;29;20304;-81
2022/05/12 22:19:39;;;;;;;2.80;0.90;;;;;13.30;101446.00;;;;9978313;29;20226;-80
2022/05/12 22:24:41;;;;;;;5.23;0.90;;;;;13.20;101447.00;;;;9992992;29;20209;-80
2022/05/12 22:29:43;;;;;;;6.03;1.30;;;;;13.10;101443.00;;;;9961500;29;20210;-81
2022/05/12 22:34:46;;;;;;;8.87;1.37;;;;;13.00;101437.00;;;;9991918;29;20202;-80
2022/05/12 22:39:48;;;;;;;4.63;0.87;;;;;12.90;101425.00;;;;9976574;29;20239;-80
2022/05/12 22:44:50;;;;;;;7.23;1.63;;;;;12.80;101430.00;;;;9992439;29;20205;-80
2022/05/12 22:49:52;;;;;;;2.90;0.93;;;;;12.70;101431.00;;;;9969741;29;20669;-80
2022/05/12 22:54:55;;;;;;;9.60;1.70;;;;;12.50;101428.00;;;;9976982;29;20201;-81
2022/05/12 22:59:57;;;;;;;7.23;1.30;;;;;12.40;101428.00;;;;10005940;29;20225;-80
2022/05/12 23:04:59;;;;;;;2.73;1.20;;;;;12.40;101435.00;;;;9960508;29;20209;-80
2022/05/12 23:10:02;;;;;;;2.93;1.20;;;;;12.40;101441.00;;;;9990348;29;20198;-80
2022/05/12 23:15:06;;;;;;;4.67;1.10;;;;;12.40;101444.00;;;;9976139;29;20202;-80
2022/05/12 23:25:29;;;;;;;5.83;1.40;;;;;12.50;101439.00;;;;9974108;29;20213;-80
2022/05/12 23:30:31;;;;;;;7.50;1.13;;;;;12.40;101447.00;;;;9960078;29;20213;-80
2022/05/12 23:35:34;;;;;;;4.13;1.10;;;;;12.30;101450.00;;;;9990208;29;20810;-80
2022/05/12 23:40:56;;;;;;;6.33;1.30;;;;;12.20;101436.00;;;;9989129;29;20230;-81
2022/05/12 23:45:57;;;;;;;4.87;1.10;;;;;12.10;101436.00;;;;10003512;29;20205;-81
2022/05/12 23:51:00;;;;;;;6.17;1.70;;;;;12.00;101434.00;;;;9974231;29;20209;-80
2022/05/12 23:56:03;;;;;;;3.20;1.30;;;;;12.00;101434.00;;;;9989548;29;20202;-80
